createdAt,value
2023-05-23T00:03:18.958Z,58.67
2023-05-23T00:08:26.272Z,59.53
2023-05-23T00:13:34.998Z,59.05
2023-05-23T00:18:43.314Z,58.57
2023-05-23T00:23:50.816Z,60.63
2023-05-23T00:28:58.794Z,58.53
2023-05-23T00:34:05.768Z,59.30
2023-05-23T00:39:14.611Z,58.03
2023-05-23T00:44:23.034Z,58.48
2023-05-23T00:49:30.656Z,58.45
2023-05-23T00:54:39.550Z,57.70
2023-05-23T00:59:48.080Z,60.27
2023-05-23T01:04:58.352Z,58.03
2023-05-23T01:10:07.083Z,58.10
2023-05-23T01:15:17.521Z,57.77
2023-05-23T01:20:28.173Z,57.47
2023-05-23T01:25:56.283Z,57.93
2023-05-23T01:31:05.952Z,58.20
2023-05-23T01:36:15.608Z,57.80
2023-05-23T01:41:22.958Z,57.93
2023-05-23T01:46:33.743Z,58.28
2023-05-23T01:51:43.037Z,59.40
2023-05-23T01:56:51.221Z,58.60
2023-05-23T02:01:59.067Z,57.87
2023-05-23T02:07:07.550Z,57.57
2023-05-23T02:12:15.317Z,57.73
2023-05-23T02:17:24.546Z,57.62
2023-05-23T02:22:32.502Z,57.47
2023-05-23T02:27:40.139Z,58.40
2023-05-23T02:32:47.834Z,57.17
2023-05-23T02:37:55.133Z,58.00
2023-05-23T02:48:07.884Z,56.70
2023-05-23T02:53:16.488Z,57.50
2023-05-23T02:58:24.793Z,57.10
2023-05-23T03:03:34.973Z,57.27
2023-05-23T03:08:44.310Z,57.40
2023-05-23T03:13:51.565Z,57.33
2023-05-23T03:24:06.430Z,57.27
2023-05-23T03:29:13.216Z,56.60
2023-05-23T03:34:20.651Z,57.43
2023-05-23T03:39:29.546Z,57.20
2023-05-23T03:44:36.444Z,57.00
2023-05-23T03:49:45.347Z,57.73
2023-05-23T03:54:52.766Z,57.80
2023-05-23T03:59:59.740Z,57.93
2023-05-23T04:05:07.683Z,58.10
2023-05-23T04:10:15.488Z,58.23
2023-05-23T04:15:23.218Z,59.33
2023-05-23T04:25:37.174Z,58.52
2023-05-23T04:30:44.596Z,58.97
2023-05-23T04:35:51.554Z,62.37
2023-05-23T04:40:59.557Z,59.10
2023-05-23T04:46:06.481Z,59.53
2023-05-23T04:51:13.195Z,59.67
2023-05-23T04:56:22.022Z,58.73
2023-05-23T05:01:32.034Z,58.57
2023-05-23T05:06:39.476Z,59.93
2023-05-23T05:11:47.691Z,61.40
2023-05-23T05:16:57.775Z,60.70
2023-05-23T05:22:06.466Z,60.37
2023-05-23T05:27:14.433Z,59.93
2023-05-23T05:32:23.204Z,60.08
2023-05-23T05:37:31.941Z,62.60
2023-05-23T05:42:38.876Z,59.63
2023-05-23T05:47:46.164Z,60.03
2023-05-23T05:52:52.822Z,62.47
2023-05-23T05:57:59.619Z,60.93
2023-05-23T06:03:06.808Z,59.70
2023-05-23T06:08:13.484Z,60.20
2023-05-23T06:13:20.269Z,60.80
2023-05-23T06:18:26.867Z,61.68
2023-05-23T06:23:34.149Z,64.77
2023-05-23T06:28:41.756Z,60.70
2023-05-23T06:33:49.489Z,60.43
2023-05-23T06:38:56.826Z,63.47
2023-05-23T06:44:03.771Z,60.83
2023-05-23T06:49:15.260Z,60.63
2023-05-23T06:54:20.528Z,60.13
2023-05-23T06:59:28.554Z,62.03
2023-05-23T07:04:35.995Z,64.47
2023-05-23T07:09:42.863Z,62.20
2023-05-23T07:14:50.635Z,61.80
2023-05-23T07:19:57.830Z,61.47
2023-05-23T07:25:05.406Z,61.30
2023-05-23T07:30:13.703Z,62.95
2023-05-23T07:35:23.438Z,66.30
2023-05-23T07:40:30.893Z,62.95
2023-05-23T07:45:39.085Z,64.13
2023-05-23T07:50:46.200Z,64.30
2023-05-23T07:55:53.157Z,65.72
2023-05-23T08:00:59.871Z,64.07
2023-05-23T08:06:07.803Z,66.53
2023-05-23T08:11:15.847Z,64.60
2023-05-23T08:16:23.310Z,66.70
2023-05-23T08:21:31.322Z,65.13
2023-05-23T08:26:38.272Z,68.47
2023-05-23T08:31:45.295Z,66.63
2023-05-23T08:36:53.379Z,66.87
2023-05-23T08:42:00.186Z,65.87
2023-05-23T08:47:08.167Z,68.33
2023-05-23T08:52:18.208Z,72.27
2023-05-23T08:57:25.202Z,68.27
2023-05-23T09:02:33.201Z,67.80
2023-05-23T09:07:44.921Z,72.53
2023-05-23T09:12:51.955Z,70.07
2023-05-23T09:18:03.656Z,70.07
2023-05-23T09:23:14.674Z,69.63
2023-05-23T09:28:21.973Z,69.37
2023-05-23T09:33:49.023Z,68.15
2023-05-23T09:38:55.954Z,69.03
2023-05-23T09:44:11.076Z,69.90
2023-05-23T09:49:19.573Z,69.60
2023-05-23T09:54:26.501Z,69.05
2023-05-23T09:59:36.385Z,71.07
2023-05-23T10:04:44.897Z,70.93
2023-05-23T10:09:59.109Z,71.43
2023-05-23T10:15:10.466Z,71.27
2023-05-23T10:20:24.696Z,70.72
2023-05-23T10:25:31.716Z,68.87
2023-05-23T10:30:38.970Z,70.00
2023-05-23T10:36:09.459Z,74.32
2023-05-23T10:41:27.068Z,68.98
2023-05-23T10:46:54.161Z,74.93
2023-05-23T10:52:03.220Z,71.93
2023-05-23T10:57:20.040Z,75.33
2023-05-23T11:02:30.819Z,72.53
2023-05-23T11:07:38.848Z,71.47
2023-05-23T11:12:47.387Z,71.93
2023-05-23T11:17:58.612Z,70.30
2023-05-23T11:23:09.499Z,74.70
2023-05-23T11:28:17.632Z,70.74
2023-05-23T11:33:25.268Z,71.97
2023-05-23T11:38:34.864Z,76.25
2023-05-23T11:43:55.520Z,73.60
2023-05-23T11:49:02.521Z,74.07
2023-05-23T11:54:10.772Z,75.63
2023-05-23T11:59:17.613Z,76.17
2023-05-23T12:04:28.775Z,80.33
2023-05-23T12:09:46.927Z,77.57
2023-05-23T12:14:59.594Z,80.17
2023-05-23T12:20:08.713Z,77.20
2023-05-23T12:25:15.544Z,78.83
2023-05-23T12:30:24.508Z,75.87
2023-05-23T12:35:33.542Z,77.33
2023-05-23T12:40:40.907Z,78.70
2023-05-23T12:45:47.620Z,76.93
2023-05-23T12:50:54.850Z,76.30
2023-05-23T12:56:02.241Z,77.20
2023-05-23T13:01:09.606Z,76.17
2023-05-23T13:06:17.157Z,74.83
2023-05-23T13:11:25.132Z,78.90
2023-05-23T13:16:36.772Z,75.07
2023-05-23T13:21:47.335Z,73.83
2023-05-23T13:26:53.732Z,75.10
2023-05-23T13:32:00.917Z,78.47
2023-05-23T13:37:08.709Z,77.00
2023-05-23T13:42:15.937Z,73.60
2023-05-23T13:47:23.055Z,75.37
2023-05-23T13:52:30.323Z,72.45
2023-05-23T13:57:37.682Z,75.37
2023-05-23T14:02:44.820Z,73.45
2023-05-23T14:07:51.936Z,73.83
2023-05-23T14:12:59.456Z,71.53
2023-05-23T14:18:07.323Z,72.80
2023-05-23T14:23:13.976Z,73.10
2023-05-23T14:28:20.761Z,70.70
2023-05-23T14:33:28.224Z,71.97
2023-05-23T14:38:34.868Z,73.43
2023-05-23T14:43:42.078Z,71.80
2023-05-23T14:48:49.186Z,72.20
2023-05-23T14:53:57.930Z,73.70
2023-05-23T14:59:07.266Z,72.07
2023-05-23T15:04:14.233Z,78.33
2023-05-23T15:09:21.465Z,76.02
2023-05-23T15:14:30.136Z,76.17
2023-05-23T15:19:39.401Z,74.97
2023-05-23T15:24:47.102Z,74.70
2023-05-23T15:29:54.068Z,74.67
2023-05-23T15:35:01.087Z,75.83
2023-05-23T15:40:09.695Z,73.13
2023-05-23T15:45:16.317Z,70.33
2023-05-23T15:50:23.099Z,71.20
2023-05-23T15:55:30.461Z,77.85
2023-05-23T16:00:37.861Z,70.27
2023-05-23T16:05:44.876Z,71.20
2023-05-23T16:10:51.905Z,71.53
2023-05-23T16:15:59.241Z,68.60
2023-05-23T16:21:08.023Z,70.83
2023-05-23T16:26:16.036Z,71.57
2023-05-23T16:31:28.528Z,68.42
2023-05-23T16:36:36.624Z,69.83
2023-05-23T16:41:44.295Z,68.80
2023-05-23T16:46:51.801Z,67.37
2023-05-23T16:51:59.377Z,68.93
2023-05-23T16:57:06.976Z,69.40
2023-05-23T17:02:16.884Z,68.10
2023-05-23T17:07:23.675Z,68.80
2023-05-23T17:12:31.498Z,66.72
2023-05-23T17:17:38.709Z,69.27
2023-05-23T17:22:46.620Z,65.90
2023-05-23T17:27:54.075Z,67.20
2023-05-23T17:33:01.491Z,67.40
2023-05-23T17:38:08.930Z,67.97
2023-05-23T17:43:16.112Z,64.60
2023-05-23T17:48:34.429Z,63.92
2023-05-23T17:53:32.210Z,66.80
2023-05-23T17:58:42.392Z,63.73
2023-05-23T18:03:49.892Z,64.15
2023-05-23T18:08:58.755Z,63.60
2023-05-23T18:14:05.656Z,62.70
2023-05-23T18:19:13.762Z,62.60
2023-05-23T18:24:20.359Z,73.53
2023-05-23T18:29:27.506Z,75.73
2023-05-23T18:34:34.793Z,62.35
2023-05-23T18:39:42.222Z,62.13
2023-05-23T18:44:53.539Z,61.85
2023-05-23T18:50:01.804Z,60.35
2023-05-23T18:55:11.604Z,61.87
2023-05-23T19:00:19.455Z,64.60
2023-05-23T19:05:27.348Z,60.27
2023-05-23T19:10:34.080Z,68.23
2023-05-23T19:15:40.900Z,59.67
2023-05-23T19:20:51.948Z,60.00
2023-05-23T19:26:02.313Z,58.90
2023-05-23T19:31:09.629Z,59.13
2023-05-23T19:36:16.911Z,58.92
2023-05-23T19:41:27.478Z,59.93
2023-05-23T19:46:36.117Z,59.10
2023-05-23T19:51:43.053Z,59.60
2023-05-23T19:56:50.384Z,59.27
2023-05-23T20:01:57.697Z,59.47
2023-05-23T20:07:06.862Z,59.67
2023-05-23T20:12:14.113Z,60.30
2023-05-23T20:17:21.694Z,60.50
2023-05-23T20:22:29.461Z,61.98
2023-05-23T20:27:36.409Z,60.63
2023-05-23T20:32:45.012Z,61.77
2023-05-23T20:37:53.860Z,62.47
2023-05-23T20:43:04.147Z,61.30
2023-05-23T20:48:10.773Z,60.90
2023-05-23T20:53:19.155Z,59.90
2023-05-23T20:58:26.839Z,62.27
2023-05-23T21:03:34.621Z,57.87
2023-05-23T21:08:42.281Z,56.97
2023-05-23T21:13:50.552Z,56.90
2023-05-23T21:18:57.441Z,57.00
2023-05-23T21:24:06.672Z,56.23
2023-05-23T21:29:13.977Z,57.15
2023-05-23T21:34:24.277Z,57.57
2023-05-23T21:39:42.938Z,57.70
2023-05-23T21:44:40.747Z,56.83
2023-05-23T21:49:46.648Z,56.73
2023-05-23T21:54:52.852Z,56.93
2023-05-23T21:59:59.445Z,57.05
2023-05-23T22:05:07.244Z,56.07
2023-05-23T22:10:14.582Z,56.00
2023-05-23T22:15:21.608Z,55.45
2023-05-23T22:20:29.996Z,55.52
2023-05-23T22:25:39.075Z,55.57
2023-05-23T22:30:45.829Z,56.03
2023-05-23T22:35:52.693Z,55.37
2023-05-23T22:40:59.397Z,55.83
2023-05-23T22:46:06.452Z,55.60
2023-05-23T22:51:14.856Z,55.77
2023-05-23T22:56:22.306Z,55.52
2023-05-23T23:01:30.252Z,55.48
2023-05-23T23:06:37.000Z,55.47
2023-05-23T23:11:43.809Z,54.90
2023-05-23T23:16:50.860Z,55.97
2023-05-23T23:21:59.924Z,55.27
2023-05-23T23:27:07.430Z,55.20
2023-05-23T23:32:14.406Z,55.07
2023-05-23T23:37:24.076Z,54.65
2023-05-23T23:42:30.665Z,54.40
2023-05-23T23:47:37.244Z,55.00
2023-05-23T23:52:44.476Z,54.80
2023-05-23T23:57:51.572Z,54.77
